^^
Saratoga-Weather Station Historical Data
Daily Summary for August 23, 2020 Units:  Metric    English   Both
Daily Weekly Monthly Yearly Custom
  High: Low: Average:
Temperature: 29.3 °C 13 °C 21.4 °C
Dew Point: 16.2 °C 10.3 °C 13 °C
Humidity: 85% 37% 62%
Wind Speed: 13km/h 0km/h 2.2km/h
Wind Gust: 20.9km/h - -
Wind- - SE
Pressure: 1024.0 hPa 1020.3 hPa -
Precipitation: 0.0 mm    
Historical Graphs
 
 
Tabular Data for August 23, 2020
Time Temperature Dew Point Pressure Wind Wind Speed Wind Gust Humidity Rainfall Rate (Hourly) solar
00:04 16.8 °C 12.7 °C 1023.4 hPa West 1.4 km/h 4.8 km/h 77% 0.0 mm 0 W/m2
00:09 17.1 °C 12.8 °C 1023.4 hPa Calm   6.4 km/h 76% 0.0 mm 0 W/m2
00:14 17.2 °C 12.9 °C 1023.4 hPa Calm   3.2 km/h 76% 0.0 mm 0 W/m2
00:19 17.2 °C 12.9 °C 1023.4 hPa Calm     76% 0.0 mm 0 W/m2
00:24 17.1 °C 12.8 °C 1023.4 hPa WSW 1.4 km/h 3.2 km/h 76% 0.0 mm 0 W/m2
00:29 16.9 °C 12.8 °C 1023.7 hPa Calm     77% 0.0 mm 0 W/m2
00:34 16.8 °C 12.7 °C 1023.7 hPa WSW 3.2 km/h 3.2 km/h 77% 0.0 mm 0 W/m2
00:39 16.7 °C 12.8 °C 1023.4 hPa Calm   3.2 km/h 78% 0.0 mm 0 W/m2
00:44 16.6 °C 12.9 °C 1023.7 hPa Calm   1.6 km/h 79% 0.0 mm 0 W/m2
00:49 16.4 °C 12.7 °C 1023.4 hPa Calm   3.2 km/h 79% 0.0 mm 0 W/m2
00:54 16.3 °C 12.7 °C 1023.4 hPa Calm     79% 0.0 mm 0 W/m2
00:59 16.1 °C 12.6 °C 1023.7 hPa Calm   3.2 km/h 80% 0.0 mm 0 W/m2
01:04 15.9 °C 12.5 °C 1023.7 hPa Calm   1.6 km/h 80% 0.0 mm 0 W/m2
01:09 15.9 °C 12.6 °C 1023.7 hPa Calm   1.6 km/h 81% 0.0 mm 0 W/m2
01:14 15.8 °C 12.5 °C 1023.7 hPa WSW 3.2 km/h 4.8 km/h 81% 0.0 mm 0 W/m2
01:19 15.7 °C 12.4 °C 1023.7 hPa Calm   3.2 km/h 81% 0.0 mm 0 W/m2
01:24 15.7 °C 12.4 °C 1023.7 hPa WSW 1.4 km/h 3.2 km/h 81% 0.0 mm 0 W/m2
01:29 15.6 °C 12.4 °C 1023.7 hPa Calm   1.6 km/h 81% 0.0 mm 0 W/m2
01:34 15.5 °C 12.3 °C 1023.7 hPa Calm     81% 0.0 mm 0 W/m2
01:39 15.4 °C 12.2 °C 1023.7 hPa WSW 1.4 km/h 1.6 km/h 81% 0.0 mm 0 W/m2
01:44 15.3 °C 12.1 °C 1023.7 hPa Calm   1.6 km/h 81% 0.0 mm 0 W/m2
01:49 15.2 °C 12.1 °C 1023.7 hPa Calm     82% 0.0 mm 0 W/m2
01:54 15.1 °C 12 °C 1023.7 hPa WSW 1.4 km/h 3.2 km/h 82% 0.0 mm 0 W/m2
01:59 15 °C 12 °C 1023.7 hPa Calm   1.6 km/h 82% 0.0 mm 0 W/m2
02:04 14.8 °C 11.8 °C 1023.7 hPa Calm     82% 0.0 mm 0 W/m2
02:09 14.8 °C 11.9 °C 1023.7 hPa Calm   1.6 km/h 83% 0.0 mm 0 W/m2
02:14 14.7 °C 11.8 °C 1023.7 hPa Calm     83% 0.0 mm 0 W/m2
02:19 14.6 °C 11.7 °C 1023.7 hPa WSW 1.4 km/h 3.2 km/h 83% 0.0 mm 0 W/m2
02:24 14.6 °C 11.7 °C 1023.7 hPa Calm   1.6 km/h 83% 0.0 mm 0 W/m2
02:29 14.6 °C 11.7 °C 1023.7 hPa WSW 3.2 km/h 3.2 km/h 83% 0.0 mm 0 W/m2
02:34 14.6 °C 11.7 °C 1023.7 hPa Calm   1.6 km/h 83% 0.0 mm 0 W/m2
02:39 14.6 °C 11.7 °C 1023.7 hPa WSW 1.4 km/h 3.2 km/h 83% 0.0 mm 0 W/m2
02:44 14.5 °C 11.6 °C 1023.7 hPa Calm     83% 0.0 mm 0 W/m2
02:49 14.4 °C 11.5 °C 1023.7 hPa Calm   3.2 km/h 83% 0.0 mm 0 W/m2
02:54 14.3 °C 11.3 °C 1023.7 hPa Calm     82% 0.0 mm 0 W/m2
02:59 14.3 °C 11.3 °C 1023.7 hPa WSW 1.4 km/h 1.6 km/h 82% 0.0 mm 0 W/m2
03:04 14.3 °C 11.3 °C 1023.7 hPa WSW 1.4 km/h 3.2 km/h 82% 0.0 mm 0 W/m2
03:09 14.3 °C 11.3 °C 1023.7 hPa Calm   1.6 km/h 82% 0.0 mm 0 W/m2
03:14 14.3 °C 11.3 °C 1023.7 hPa Calm   3.2 km/h 82% 0.0 mm 0 W/m2
03:19 14.3 °C 11.3 °C 1023.7 hPa Calm     82% 0.0 mm 0 W/m2
03:24 14.2 °C 11.2 °C 1023.7 hPa Calm   1.6 km/h 82% 0.0 mm 0 W/m2
03:29 14.1 °C 11.1 °C 1023.7 hPa Calm   1.6 km/h 82% 0.0 mm 0 W/m2
03:34 14.1 °C 11.1 °C 1023.7 hPa Calm   1.6 km/h 82% 0.0 mm 0 W/m2
03:39 13.9 °C 11.1 °C 1023.7 hPa WSW 1.4 km/h 1.6 km/h 83% 0.0 mm 0 W/m2
03:44 13.9 °C 10.9 °C 1023.7 hPa WSW 1.4 km/h 1.6 km/h 82% 0.0 mm 0 W/m2
03:49 13.9 °C 10.9 °C 1023.7 hPa Calm     82% 0.0 mm 0 W/m2
03:54 13.9 °C 10.9 °C 1023.7 hPa WSW 3.2 km/h 4.8 km/h 82% 0.0 mm 0 W/m2
03:59 13.9 °C 10.9 °C 1023.7 hPa Calm   3.2 km/h 82% 0.0 mm 0 W/m2
04:04 14.1 °C 10.9 °C 1023.7 hPa WSW 1.4 km/h 3.2 km/h 81% 0.0 mm 0 W/m2
04:09 14.1 °C 10.9 °C 1023.7 hPa WSW 3.2 km/h 3.2 km/h 81% 0.0 mm 0 W/m2
04:14 14.1 °C 10.9 °C 1023.7 hPa SW 3.2 km/h 3.2 km/h 81% 0.0 mm 0 W/m2
04:19 14.1 °C 10.7 °C 1023.4 hPa SW 1.4 km/h 3.2 km/h 80% 0.0 mm 0 W/m2
04:24 14.1 °C 10.7 °C 1023.7 hPa SW 3.2 km/h 3.2 km/h 80% 0.0 mm 0 W/m2
04:29 14.2 °C 10.8 °C 1023.4 hPa Calm   3.2 km/h 80% 0.0 mm 0 W/m2
04:34 14.1 °C 10.7 °C 1023.4 hPa Calm     80% 0.0 mm 0 W/m2
04:39 14 °C 10.6 °C 1023.4 hPa Calm     80% 0.0 mm 0 W/m2
04:44 13.9 °C 10.7 °C 1023.4 hPa Calm   1.6 km/h 81% 0.0 mm 0 W/m2
04:49 13.8 °C 10.6 °C 1023.4 hPa Calm     81% 0.0 mm 0 W/m2
04:54 13.7 °C 10.5 °C 1023.4 hPa Calm     81% 0.0 mm 0 W/m2
04:59 13.6 °C 10.6 °C 1023.4 hPa Calm   1.6 km/h 82% 0.0 mm 0 W/m2
05:04 13.4 °C 10.4 °C 1023.4 hPa Calm     82% 0.0 mm 0 W/m2
05:09 13.3 °C 10.3 °C 1023.7 hPa Calm     82% 0.0 mm 0 W/m2
05:14 13.3 °C 10.5 °C 1023.7 hPa Calm     83% 0.0 mm 0 W/m2
05:19 13.2 °C 10.4 °C 1023.7 hPa Calm     83% 0.0 mm 0 W/m2
05:24 13.2 °C 10.4 °C 1023.7 hPa Calm     83% 0.0 mm 0 W/m2
05:29 13.2 °C 10.4 °C 1023.7 hPa Calm   3.2 km/h 83% 0.0 mm 0 W/m2
05:34 13.2 °C 10.4 °C 1023.7 hPa Calm   1.6 km/h 83% 0.0 mm 5 W/m2
05:39 13.2 °C 10.4 °C 1023.7 hPa Calm   3.2 km/h 83% 0.0 mm 7 W/m2
05:44 13.2 °C 10.4 °C 1023.7 hPa Calm     83% 0.0 mm 9 W/m2
05:49 13.1 °C 10.5 °C 1023.7 hPa Calm   3.2 km/h 84% 0.0 mm 11 W/m2
05:54 13.1 °C 10.5 °C 1023.7 hPa Calm   1.6 km/h 84% 0.0 mm 12 W/m2
05:59 13.1 °C 10.5 °C 1023.7 hPa Calm   3.2 km/h 84% 0.0 mm 14 W/m2
06:04 13 °C 10.4 °C 1023.7 hPa Calm     84% 0.0 mm 18 W/m2
06:09 13 °C 10.5 °C 1023.7 hPa Calm   1.6 km/h 85% 0.0 mm 19 W/m2
06:14 13.1 °C 10.6 °C 1023.7 hPa Calm   3.2 km/h 85% 0.0 mm 21 W/m2
06:19 13.2 °C 10.7 °C 1023.7 hPa Calm   3.2 km/h 85% 0.0 mm 23 W/m2
06:24 13.3 °C 10.7 °C 1023.7 hPa Calm     84% 0.0 mm 25 W/m2
06:29 13.5 °C 11 °C 1023.7 hPa SW 1.4 km/h 3.2 km/h 85% 0.0 mm 26 W/m2
06:34 13.6 °C 10.8 °C 1023.7 hPa SW 1.4 km/h 3.2 km/h 83% 0.0 mm 26 W/m2
06:39 13.9 °C 10.9 °C 1023.7 hPa Calm     82% 0.0 mm 28 W/m2
06:44 14.1 °C 10.9 °C 1023.7 hPa Calm   3.2 km/h 81% 0.0 mm 30 W/m2
06:49 14.3 °C 10.7 °C 1023.7 hPa WSW 1.4 km/h 1.6 km/h 79% 0.0 mm 30 W/m2
06:54 14.6 °C 10.8 °C 1023.7 hPa WSW 1.4 km/h 1.6 km/h 78% 0.0 mm 32 W/m2
06:59 14.8 °C 10.8 °C 1023.7 hPa Calm     77% 0.0 mm 33 W/m2
07:04 14.9 °C 10.9 °C 1023.7 hPa West 3.2 km/h 3.2 km/h 77% 0.0 mm 33 W/m2
07:09 15.1 °C 10.9 °C 1023.7 hPa West 1.4 km/h 3.2 km/h 76% 0.0 mm 35 W/m2
07:14 15.3 °C 11.1 °C 1023.7 hPa Calm   3.2 km/h 76% 0.0 mm 35 W/m2
07:19 15.4 °C 11.2 °C 1023.7 hPa Calm     76% 0.0 mm 37 W/m2
07:24 15.4 °C 11 °C 1023.7 hPa Calm     75% 0.0 mm 37 W/m2
07:29 15.6 °C 11.2 °C 1023.7 hPa ENE 1.4 km/h 1.6 km/h 75% 0.0 mm 39 W/m2
07:34 15.7 °C 11.3 °C 1023.7 hPa Calm     75% 0.0 mm 44 W/m2
07:39 15.8 °C 11.4 °C 1023.7 hPa NW 3.2 km/h 3.2 km/h 75% 0.0 mm 142 W/m2
07:44 15.9 °C 11.5 °C 1023.7 hPa East 1.4 km/h 3.2 km/h 75% 0.0 mm 234 W/m2
07:49 16.1 °C 11.7 °C 1023.7 hPa Calm   1.6 km/h 75% 0.0 mm 248 W/m2
07:54 16.3 °C 11.7 °C 1023.7 hPa NNW 1.4 km/h 1.6 km/h 74% 0.0 mm 260 W/m2
07:59 16.7 °C 11.8 °C 1023.7 hPa Calm   3.2 km/h 73% 0.0 mm 274 W/m2
08:04 17.1 °C 12 °C 1023.7 hPa Calm   3.2 km/h 72% 0.0 mm 285 W/m2
08:09 17.2 °C 12.3 °C 1023.7 hPa WNW 3.2 km/h 4.8 km/h 73% 0.0 mm 246 W/m2
08:14 17.3 °C 12 °C 1023.7 hPa NNW 3.2 km/h 4.8 km/h 71% 0.0 mm 107 W/m2
08:19 17.4 °C 12.1 °C 1023.7 hPa WNW 1.4 km/h 6.4 km/h 71% 0.0 mm 53 W/m2
08:24 17.6 °C 12.3 °C 1023.7 hPa Calm   4.8 km/h 71% 0.0 mm 53 W/m2
08:29 17.8 °C 12.5 °C 1023.7 hPa NNW 3.2 km/h 6.4 km/h 71% 0.0 mm 53 W/m2
08:34 18.2 °C 12.9 °C 1023.7 hPa ENE 1.4 km/h 3.2 km/h 71% 0.0 mm 51 W/m2
08:39 18.6 °C 12.8 °C 1023.7 hPa NW 3.2 km/h 3.2 km/h 69% 0.0 mm 51 W/m2
08:44 18.6 °C 12.8 °C 1023.7 hPa ESE 1.4 km/h 3.2 km/h 69% 0.0 mm 53 W/m2
08:49 18.7 °C 12.9 °C 1023.7 hPa Calm   3.2 km/h 69% 0.0 mm 53 W/m2
08:54 18.9 °C 13.1 °C 1023.7 hPa WNW 1.4 km/h 1.6 km/h 69% 0.0 mm 53 W/m2
08:59 19.1 °C 13.1 °C 1023.7 hPa Calm   4.8 km/h 68% 0.0 mm 104 W/m2
09:04 19.2 °C 13.1 °C 1023.7 hPa NNE 3.2 km/h 3.2 km/h 68% 0.0 mm 308 W/m2
09:09 19.6 °C 13.5 °C 1023.7 hPa Calm   4.8 km/h 68% 0.0 mm 383 W/m2
09:14 19.7 °C 13.4 °C 1023.7 hPa Calm   1.6 km/h 67% 0.0 mm 462 W/m2
09:19 19.9 °C 13.6 °C 1024.0 hPa Calm     67% 0.0 mm 483 W/m2
09:24 20.4 °C 13.6 °C 1024.0 hPa NE 3.2 km/h 8 km/h 65% 0.0 mm 499 W/m2
09:29 20.7 °C 13.6 °C 1024.0 hPa ENE 4.7 km/h 8 km/h 64% 0.0 mm 513 W/m2
09:34 20.9 °C 14.1 °C 1024.0 hPa ENE 3.2 km/h 3.2 km/h 65% 0.0 mm 524 W/m2
09:39 21.2 °C 14.1 °C 1024.0 hPa NW 8 km/h 8 km/h 64% 0.0 mm 536 W/m2
09:44 21.3 °C 14 °C 1024.0 hPa East 3.2 km/h 6.4 km/h 63% 0.0 mm 550 W/m2
09:49 21.4 °C 14.1 °C 1024.0 hPa ESE 4.7 km/h 9.7 km/h 63% 0.0 mm 561 W/m2
09:54 21.4 °C 13.8 °C 1024.0 hPa ESE 3.2 km/h 4.8 km/h 62% 0.0 mm 573 W/m2
09:59 21.5 °C 14.4 °C 1023.7 hPa NE 6.4 km/h 9.7 km/h 64% 0.0 mm 585 W/m2
10:04 21.6 °C 14.5 °C 1023.7 hPa ENE 6.4 km/h 6.4 km/h 64% 0.0 mm 599 W/m2
10:09 21.6 °C 14.5 °C 1023.7 hPa NE 4.7 km/h 6.4 km/h 64% 0.0 mm 550 W/m2
10:14 21.7 °C 14.6 °C 1023.7 hPa Calm   3.2 km/h 64% 0.0 mm 67 W/m2
10:19 21.7 °C 14.3 °C 1023.7 hPa North 1.4 km/h 3.2 km/h 63% 0.0 mm 130 W/m2
10:24 21.7 °C 14.6 °C 1023.7 hPa NE 1.4 km/h 3.2 km/h 64% 0.0 mm 640 W/m2
10:29 21.8 °C 14.7 °C 1023.7 hPa East 7.9 km/h 8 km/h 64% 0.0 mm 652 W/m2
10:34 22.1 °C 14.7 °C 1023.7 hPa NNE 1.4 km/h 3.2 km/h 63% 0.0 mm 666 W/m2
10:39 22.3 °C 14.9 °C 1023.7 hPa North 3.2 km/h 6.4 km/h 63% 0.0 mm 675 W/m2
10:44 22.6 °C 15.2 °C 1023.4 hPa WNW 4.7 km/h 4.8 km/h 63% 0.0 mm 693 W/m2
10:49 22.8 °C 15.4 °C 1023.4 hPa ENE 4.7 km/h 6.4 km/h 63% 0.0 mm 701 W/m2
10:54 23.1 °C 15.2 °C 1023.4 hPa Calm   3.2 km/h 61% 0.0 mm 714 W/m2
10:59 23.2 °C 15.5 °C 1023.4 hPa ENE 4.7 km/h 6.4 km/h 62% 0.0 mm 729 W/m2
11:04 23.4 °C 15.7 °C 1023.4 hPa North 1.4 km/h 4.8 km/h 62% 0.0 mm 740 W/m2
11:09 23.7 °C 16 °C 1023.4 hPa SE 1.4 km/h 6.4 km/h 62% 0.0 mm 751 W/m2
11:14 24 °C 16 °C 1023.4 hPa SW 1.4 km/h 1.6 km/h 61% 0.0 mm 761 W/m2
11:19 24.2 °C 15.7 °C 1023.4 hPa East 6.4 km/h 6.4 km/h 59% 0.0 mm 142 W/m2
11:24 24.1 °C 15.6 °C 1023.4 hPa ENE 6.4 km/h 12.9 km/h 59% 0.0 mm 287 W/m2
11:29 24 °C 15.5 °C 1023.4 hPa NNE 1.4 km/h 11.3 km/h 59% 0.0 mm 221 W/m2
11:34 24.2 °C 16.2 °C 1023.4 hPa SE 1.4 km/h 6.4 km/h 61% 0.0 mm 918 W/m2
11:39 24.2 °C 15.4 °C 1023.4 hPa NE 3.2 km/h 11.3 km/h 58% 0.0 mm 323 W/m2
11:44 24.2 °C 15.7 °C 1023.4 hPa ESE 11.1 km/h 11.3 km/h 59% 0.0 mm 343 W/m2
11:49 24.2 °C 15.4 °C 1023.4 hPa East 1.4 km/h 4.8 km/h 58% 0.0 mm 246 W/m2
11:55 24.5 °C 15.1 °C 1023.4 hPa NNE 1.4 km/h 11.3 km/h 56% 0.0 mm 246 W/m2
12:00 24.5 °C 15.1 °C 1023.0 hPa NNE 1.4 km/h 9.7 km/h 56% 0.0 mm 884 W/m2
12:05 24.8 °C 15.1 °C 1023.0 hPa East 4.7 km/h 11.3 km/h 55% 0.0 mm 872 W/m2
12:10 25.2 °C 14.9 °C 1023.0 hPa East 4.7 km/h 16.1 km/h 53% 0.0 mm 888 W/m2
12:15 25.3 °C 15 °C 1023.0 hPa ESE 4.7 km/h 9.7 km/h 53% 0.0 mm 867 W/m2
12:20 25.4 °C 15.1 °C 1023.4 hPa NNW 3.2 km/h 16.1 km/h 53% 0.0 mm 893 W/m2
12:25 25.5 °C 15.5 °C 1023.0 hPa East 1.4 km/h 6.4 km/h 54% 0.0 mm 886 W/m2
12:30 25.8 °C 15.2 °C 1023.4 hPa East 1.4 km/h 4.8 km/h 52% 0.0 mm 886 W/m2
12:35 26 °C 14.8 °C 1023.4 hPa ESE 11.1 km/h 14.5 km/h 50% 0.0 mm 868 W/m2
12:40 25.9 °C 14.7 °C 1023.0 hPa NNE 1.4 km/h 8 km/h 50% 0.0 mm 879 W/m2
12:45 25.7 °C 14.8 °C 1023.0 hPa NE 3.2 km/h 20.9 km/h 51% 0.0 mm 863 W/m2
12:50 25.4 °C 14.8 °C 1023.0 hPa East 6.4 km/h 12.9 km/h 52% 0.0 mm 872 W/m2
12:55 25.5 °C 14.6 °C 1023.0 hPa SE 4.7 km/h 17.7 km/h 51% 0.0 mm 874 W/m2
13:00 25.7 °C 15.1 °C 1023.0 hPa NNE 3.2 km/h 4.8 km/h 52% 0.0 mm 888 W/m2
13:05 25.9 °C 14.7 °C 1023.0 hPa Calm   12.9 km/h 50% 0.0 mm 886 W/m2
13:10 26.2 °C 15.3 °C 1023.0 hPa ENE 3.2 km/h 8 km/h 51% 0.0 mm 891 W/m2
13:15 26.3 °C 15 °C 1023.0 hPa North 3.2 km/h 12.9 km/h 50% 0.0 mm 893 W/m2
13:20 26.4 °C 15.4 °C 1023.0 hPa NNE 4.7 km/h 6.4 km/h 51% 0.0 mm 893 W/m2
13:25 26.5 °C 15.2 °C 1023.0 hPa ENE 3.2 km/h 12.9 km/h 50% 0.0 mm 900 W/m2
13:30 26.6 °C 14 °C 1023.0 hPa East 3.2 km/h 11.3 km/h 46% 0.0 mm 895 W/m2
13:35 26.5 °C 14.9 °C 1023.0 hPa NNW 4.7 km/h 4.8 km/h 49% 0.0 mm 893 W/m2
13:40 26.6 °C 15 °C 1022.7 hPa East 4.7 km/h 6.4 km/h 49% 0.0 mm 907 W/m2
13:45 26.8 °C 14.2 °C 1022.7 hPa WNW 1.4 km/h 3.2 km/h 46% 0.0 mm 900 W/m2
13:50 26.7 °C 14.5 °C 1022.7 hPa ESE 1.4 km/h 14.5 km/h 47% 0.0 mm 898 W/m2
13:55 26.7 °C 14.8 °C 1022.7 hPa WNW 3.2 km/h 6.4 km/h 48% 0.0 mm 900 W/m2
14:00 26.7 °C 14.8 °C 1022.7 hPa ESE 13 km/h 14.5 km/h 48% 0.0 mm 904 W/m2
14:05 26.7 °C 14.5 °C 1022.7 hPa NW 3.2 km/h 8 km/h 47% 0.0 mm 896 W/m2
14:10 26.7 °C 14.8 °C 1022.7 hPa ENE 13 km/h 20.9 km/h 48% 0.0 mm 896 W/m2
14:15 26.8 °C 14.2 °C 1022.7 hPa ENE 3.2 km/h 16.1 km/h 46% 0.0 mm 893 W/m2
14:20 26.9 °C 13.6 °C 1022.4 hPa East 7.9 km/h 20.9 km/h 44% 0.0 mm 895 W/m2
14:25 27 °C 14.4 °C 1022.4 hPa East 3.2 km/h 8 km/h 46% 0.0 mm 895 W/m2
14:30 27.2 °C 14.6 °C 1022.4 hPa NE 4.7 km/h 6.4 km/h 46% 0.0 mm 888 W/m2
14:36 27.3 °C 14.7 °C 1022.4 hPa NE 4.7 km/h 6.4 km/h 46% 0.0 mm 882 W/m2
14:41 27.3 °C 14.3 °C 1022.4 hPa East 6.4 km/h 6.4 km/h 45% 0.0 mm 881 W/m2
14:46 27.7 °C 14 °C 1022.4 hPa North 13 km/h 14.5 km/h 43% 0.0 mm 882 W/m2
14:51 27.6 °C 14.2 °C 1022.4 hPa NNE 3.2 km/h 11.3 km/h 44% 0.0 mm 877 W/m2
14:56 27.6 °C 13.5 °C 1022.4 hPa ENE 1.4 km/h 9.7 km/h 42% 0.0 mm 870 W/m2
15:01 27.6 °C 13.5 °C 1022.0 hPa ENE 1.4 km/h 8 km/h 42% 0.0 mm 867 W/m2
15:06 27.7 °C 14.3 °C 1022.0 hPa East 11.1 km/h 11.3 km/h 44% 0.0 mm 868 W/m2
15:11 27.8 °C 13.3 °C 1022.0 hPa East 6.4 km/h 6.4 km/h 41% 0.0 mm 867 W/m2
15:16 27.8 °C 14.4 °C 1022.0 hPa SSE 3.2 km/h 8 km/h 44% 0.0 mm 858 W/m2
15:21 27.7 °C 14 °C 1022.0 hPa ENE 4.7 km/h 11.3 km/h 43% 0.0 mm 849 W/m2
15:31 27.7 °C 13.3 °C 1022.0 hPa East 4.7 km/h 12.9 km/h 41% 0.0 mm 837 W/m2
15:36 27.8 °C 13.3 °C 1022.0 hPa ENE 1.4 km/h 4.8 km/h 41% 0.0 mm 835 W/m2
15:41 27.9 °C 13.1 °C 1022.0 hPa SW 3.2 km/h 11.3 km/h 40% 0.0 mm 828 W/m2
15:46 28.2 °C 15.1 °C 1021.7 hPa West 1.4 km/h 8 km/h 45% 0.0 mm 817 W/m2
15:51 28.3 °C 14.9 °C 1021.7 hPa ESE 6.4 km/h 6.4 km/h 44% 0.0 mm 816 W/m2
15:56 28.2 °C 12.9 °C 1021.7 hPa ESE 4.7 km/h 8 km/h 39% 0.0 mm 812 W/m2
16:01 28.2 °C 14.1 °C 1021.7 hPa SE 1.4 km/h 8 km/h 42% 0.0 mm 793 W/m2
16:06 28.3 °C 13 °C 1021.7 hPa NNE 1.4 km/h 12.9 km/h 39% 0.0 mm 788 W/m2
16:11 28.1 °C 13.2 °C 1021.7 hPa SE 3.2 km/h 16.1 km/h 40% 0.0 mm 775 W/m2
16:16 28 °C 13.1 °C 1021.3 hPa NNW 4.7 km/h 8 km/h 40% 0.0 mm 765 W/m2
16:21 28.2 °C 13.7 °C 1021.3 hPa ESE 3.2 km/h 8 km/h 41% 0.0 mm 754 W/m2
16:26 28.4 °C 13.9 °C 1021.3 hPa NNE 4.7 km/h 6.4 km/h 41% 0.0 mm 744 W/m2
16:31 28.6 °C 13.3 °C 1021.3 hPa NE 4.7 km/h 4.8 km/h 39% 0.0 mm 735 W/m2
16:37 28.7 °C 13.8 °C 1021.3 hPa East 6.4 km/h 9.7 km/h 40% 0.0 mm 726 W/m2
16:42 28.8 °C 13.5 °C 1021.3 hPa SE 3.2 km/h 12.9 km/h 39% 0.0 mm 710 W/m2
16:47 28.7 °C 14.1 °C 1021.3 hPa NNE 6.4 km/h 16.1 km/h 41% 0.0 mm 696 W/m2
16:52 28.7 °C 14.1 °C 1021.3 hPa NW 3.2 km/h 6.4 km/h 41% 0.0 mm 693 W/m2
16:57 28.8 °C 14.6 °C 1021.3 hPa ENE 3.2 km/h 4.8 km/h 42% 0.0 mm 679 W/m2
17:02 28.7 °C 13.4 °C 1021.3 hPa SE 4.7 km/h 9.7 km/h 39% 0.0 mm 666 W/m2
17:07 28.7 °C 14.1 °C 1021.3 hPa East 7.9 km/h 8 km/h 41% 0.0 mm 654 W/m2
17:12 28.7 °C 13.4 °C 1021.3 hPa NE 6.4 km/h 8 km/h 39% 0.0 mm 640 W/m2
17:17 28.7 °C 14.1 °C 1021.3 hPa East 4.7 km/h 8 km/h 41% 0.0 mm 636 W/m2
17:22 28.8 °C 14.2 °C 1021.0 hPa ENE 7.9 km/h 8 km/h 41% 0.0 mm 622 W/m2
17:27 28.8 °C 13.1 °C 1021.0 hPa ENE 6.4 km/h 8 km/h 38% 0.0 mm 605 W/m2
17:32 28.8 °C 13.9 °C 1021.0 hPa NNE 6.4 km/h 8 km/h 40% 0.0 mm 598 W/m2
17:37 28.8 °C 13.9 °C 1021.0 hPa NE 6.4 km/h 11.3 km/h 40% 0.0 mm 591 W/m2
17:47 29 °C 13.2 °C 1021.0 hPa East 4.7 km/h 9.7 km/h 38% 0.0 mm 564 W/m2
17:52 28.8 °C 13.1 °C 1020.7 hPa East 1.4 km/h 6.4 km/h 38% 0.0 mm 547 W/m2
17:57 28.8 °C 13.5 °C 1020.7 hPa ENE 9.7 km/h 11.3 km/h 39% 0.0 mm 531 W/m2
18:02 28.9 °C 13.9 °C 1020.7 hPa ESE 3.2 km/h 4.8 km/h 40% 0.0 mm 520 W/m2
18:07 29.1 °C 14.5 °C 1020.7 hPa SE 4.7 km/h 6.4 km/h 41% 0.0 mm 506 W/m2
18:12 29.3 °C 14.3 °C 1020.7 hPa Calm   6.4 km/h 40% 0.0 mm 494 W/m2
18:17 29.3 °C 13.9 °C 1020.7 hPa ESE 3.2 km/h 9.7 km/h 39% 0.0 mm 471 W/m2
18:22 29.2 °C 13.4 °C 1020.7 hPa East 4.7 km/h 6.4 km/h 38% 0.0 mm 443 W/m2
18:27 29.2 °C 13.4 °C 1020.7 hPa NE 1.4 km/h 11.3 km/h 38% 0.0 mm 403 W/m2
18:32 29.2 °C 13.4 °C 1020.7 hPa East 3.2 km/h 9.7 km/h 38% 0.0 mm 371 W/m2
18:38 29.2 °C 13.8 °C 1020.7 hPa ESE 1.4 km/h 6.4 km/h 39% 0.0 mm 341 W/m2
18:43 29 °C 13.2 °C 1020.7 hPa ENE 4.7 km/h 14.5 km/h 38% 0.0 mm 322 W/m2
18:48 28.8 °C 12.7 °C 1020.7 hPa ENE 4.7 km/h 9.7 km/h 37% 0.0 mm 294 W/m2
18:53 28.8 °C 13.1 °C 1020.7 hPa ESE 1.4 km/h 12.9 km/h 38% 0.0 mm 272 W/m2
18:58 28.8 °C 13.1 °C 1020.7 hPa East 1.4 km/h 8 km/h 38% 0.0 mm 264 W/m2
19:03 28.8 °C 13.5 °C 1020.3 hPa East 3.2 km/h 12.9 km/h 39% 0.0 mm 272 W/m2
19:08 28.9 °C 13.6 °C 1020.3 hPa SSE 3.2 km/h 9.7 km/h 39% 0.0 mm 294 W/m2
19:13 28.8 °C 13.9 °C 1020.3 hPa East 1.4 km/h 1.6 km/h 40% 0.0 mm 309 W/m2
19:19 28.7 °C 13.4 °C 1020.3 hPa ENE 3.2 km/h 6.4 km/h 39% 0.0 mm 308 W/m2
19:24 28.7 °C 13.8 °C 1020.3 hPa ESE 1.4 km/h 4.8 km/h 40% 0.0 mm 292 W/m2
19:29 28.7 °C 13.4 °C 1020.3 hPa East 6.4 km/h 6.4 km/h 39% 0.0 mm 276 W/m2
19:34 28.6 °C 13.7 °C 1020.3 hPa ESE 3.2 km/h 6.4 km/h 40% 0.0 mm 253 W/m2
19:39 28.6 °C 13.3 °C 1020.3 hPa SSW 3.2 km/h 3.2 km/h 39% 0.0 mm 211 W/m2
19:44 28.6 °C 13.3 °C 1020.3 hPa East 1.4 km/h 4.8 km/h 39% 0.0 mm 181 W/m2
19:49 28.4 °C 12.7 °C 1020.3 hPa ESE 4.7 km/h 4.8 km/h 38% 0.0 mm 174 W/m2
19:54 28.3 °C 13.4 °C 1020.3 hPa Calm   1.6 km/h 40% 0.0 mm 176 W/m2
19:59 28.2 °C 12.5 °C 1020.3 hPa ESE 1.4 km/h 4.8 km/h 38% 0.0 mm 176 W/m2
20:04 28 °C 13.5 °C 1020.3 hPa ENE 1.4 km/h 4.8 km/h 41% 0.0 mm 162 W/m2
20:09 28 °C 13.9 °C 1020.3 hPa ENE 1.4 km/h 1.6 km/h 42% 0.0 mm 149 W/m2
20:14 27.9 °C 13.8 °C 1020.3 hPa Calm   3.2 km/h 42% 0.0 mm 137 W/m2
20:19 27.8 °C 13.3 °C 1020.3 hPa East 4.7 km/h 9.7 km/h 41% 0.0 mm 127 W/m2
20:24 27.7 °C 13.3 °C 1020.3 hPa Calm   4.8 km/h 41% 0.0 mm 116 W/m2
20:29 27.6 °C 13.5 °C 1020.3 hPa SSE 1.4 km/h 4.8 km/h 42% 0.0 mm 105 W/m2
20:34 27.3 °C 13.6 °C 1020.3 hPa ENE 1.4 km/h 6.4 km/h 43% 0.0 mm 84 W/m2
20:39 27.2 °C 13.2 °C 1020.3 hPa ESE 4.7 km/h 4.8 km/h 42% 0.0 mm 72 W/m2
20:44 26.9 °C 12.9 °C 1020.3 hPa Calm   1.6 km/h 42% 0.0 mm 74 W/m2
20:49 26.8 °C 13.2 °C 1020.3 hPa Calm   3.2 km/h 43% 0.0 mm 63 W/m2
20:54 26.6 °C 13 °C 1020.3 hPa Calm   3.2 km/h 43% 0.0 mm 56 W/m2
20:59 26.3 °C 13.8 °C 1020.3 hPa Calm   6.4 km/h 46% 0.0 mm 49 W/m2
21:04 26.1 °C 13.9 °C 1020.3 hPa ENE 1.4 km/h 3.2 km/h 47% 0.0 mm 40 W/m2
21:09 25.8 °C 14.3 °C 1020.3 hPa Calm   3.2 km/h 49% 0.0 mm 33 W/m2
21:14 25.4 °C 13.9 °C 1020.7 hPa East 1.4 km/h 3.2 km/h 49% 0.0 mm 19 W/m2
21:19 24.9 °C 14.1 °C 1020.7 hPa Calm   3.2 km/h 51% 0.0 mm 16 W/m2
21:24 24.4 °C 13.9 °C 1020.7 hPa Calm   3.2 km/h 52% 0.0 mm 14 W/m2
21:29 24.1 °C 13.9 °C 1020.7 hPa Calm     53% 0.0 mm 11 W/m2
21:34 23.7 °C 13.8 °C 1020.7 hPa Calm     54% 0.0 mm 7 W/m2
21:39 23.3 °C 13.8 °C 1020.7 hPa East 3.2 km/h 3.2 km/h 55% 0.0 mm 5 W/m2
21:44 22.9 °C 13.7 °C 1020.7 hPa Calm   1.6 km/h 56% 0.0 mm 5 W/m2
21:49 22.6 °C 13.6 °C 1020.7 hPa Calm     57% 0.0 mm 0 W/m2
21:54 22.2 °C 13.3 °C 1020.7 hPa East 3.2 km/h 3.2 km/h 57% 0.0 mm 0 W/m2
21:59 21.8 °C 13.2 °C 1021.0 hPa Calm   1.6 km/h 58% 0.0 mm 0 W/m2
22:04 21.6 °C 13.5 °C 1020.7 hPa East 1.4 km/h 3.2 km/h 60% 0.0 mm 0 W/m2
22:09 21.3 °C 13.5 °C 1021.0 hPa East 1.4 km/h 3.2 km/h 61% 0.0 mm 0 W/m2
22:14 21 °C 13.4 °C 1021.0 hPa East 1.4 km/h 3.2 km/h 62% 0.0 mm 0 W/m2
22:19 20.8 °C 13 °C 1021.0 hPa East 1.4 km/h 3.2 km/h 61% 0.0 mm 0 W/m2
22:24 20.6 °C 13.1 °C 1021.0 hPa East 1.4 km/h 3.2 km/h 62% 0.0 mm 0 W/m2
22:29 20.5 °C 13.2 °C 1021.0 hPa East 1.4 km/h 3.2 km/h 63% 0.0 mm 0 W/m2
22:34 20.4 °C 13.1 °C 1021.0 hPa Calm   3.2 km/h 63% 0.0 mm 0 W/m2
22:39 20.3 °C 13.3 °C 1021.0 hPa East 1.4 km/h 3.2 km/h 64% 0.0 mm 0 W/m2
22:44 20.2 °C 13.2 °C 1021.0 hPa East 1.4 km/h 1.6 km/h 64% 0.0 mm 0 W/m2
22:49 20.1 °C 13.3 °C 1021.0 hPa Calm   3.2 km/h 65% 0.0 mm 0 W/m2
22:54 19.9 °C 12.9 °C 1021.0 hPa Calm   3.2 km/h 64% 0.0 mm 0 W/m2
22:59 19.9 °C 12.9 °C 1021.0 hPa Calm     64% 0.0 mm 0 W/m2
23:04 19.8 °C 12.8 °C 1021.0 hPa Calm   1.6 km/h 64% 0.0 mm 0 W/m2
23:09 19.7 °C 12.9 °C 1021.3 hPa Calm     65% 0.0 mm 0 W/m2
23:14 19.6 °C 13.1 °C 1021.3 hPa Calm     66% 0.0 mm 0 W/m2
23:19 19.4 °C 12.9 °C 1021.3 hPa Calm     66% 0.0 mm 0 W/m2
23:29 19.1 °C 12.8 °C 1021.3 hPa East 1.4 km/h 3.2 km/h 67% 0.0 mm 0 W/m2
23:34 19 °C 13 °C 1021.3 hPa East 1.4 km/h 1.6 km/h 68% 0.0 mm 0 W/m2
23:39 18.8 °C 12.8 °C 1021.3 hPa Calm     68% 0.0 mm 0 W/m2
23:44 18.7 °C 12.7 °C 1021.3 hPa Calm     68% 0.0 mm 0 W/m2
23:49 18.6 °C 12.6 °C 1021.3 hPa Calm     68% 0.0 mm 0 W/m2
23:54 18.5 °C 12.7 °C 1021.3 hPa Calm     69% 0.0 mm 0 W/m2
23:59 18.3 °C 12.5 °C 1021.3 hPa Calm   1.6 km/h 69% 0.0 mm 0 W/m2
Juneau County Weather
Compliments of Weather Underground - 4 mb